sensor_id;sensor_type;location;lat;lon;timestamp;P1;durP1;ratioP1;P2;durP2;ratioP2
813;SDS011;389;48.710;9.392;2023-07-29T00:00:48;4.00;;;2.77;;
813;SDS011;389;48.710;9.392;2023-07-29T00:03:14;3.80;;;2.73;;
813;SDS011;389;48.710;9.392;2023-07-29T00:05:40;3.80;;;2.90;;
813;SDS011;389;48.710;9.392;2023-07-29T00:08:06;4.10;;;2.93;;
813;SDS011;389;48.710;9.392;2023-07-29T00:10:32;3.13;;;2.80;;
813;SDS011;389;48.710;9.392;2023-07-29T00:13:00;4.07;;;2.93;;
813;SDS011;389;48.710;9.392;2023-07-29T00:15:26;2.90;;;2.30;;
813;SDS011;389;48.710;9.392;2023-07-29T00:17:51;4.23;;;2.90;;
813;SDS011;389;48.710;9.392;2023-07-29T00:20:18;4.90;;;2.90;;
813;SDS011;389;48.710;9.392;2023-07-29T00:22:43;3.47;;;2.67;;
813;SDS011;389;48.710;9.392;2023-07-29T00:25:09;3.97;;;2.83;;
813;SDS011;389;48.710;9.392;2023-07-29T00:27:34;3.33;;;3.03;;
813;SDS011;389;48.710;9.392;2023-07-29T00:30:00;6.83;;;2.80;;
813;SDS011;389;48.710;9.392;2023-07-29T00:32:27;6.13;;;3.10;;
813;SDS011;389;48.710;9.392;2023-07-29T00:34:54;3.80;;;3.40;;
813;SDS011;389;48.710;9.392;2023-07-29T00:37:20;4.83;;;3.10;;
813;SDS011;389;48.710;9.392;2023-07-29T00:39:46;3.70;;;2.80;;
813;SDS011;389;48.710;9.392;2023-07-29T00:42:11;6.23;;;3.30;;
813;SDS011;389;48.710;9.392;2023-07-29T00:44:37;8.03;;;2.83;;
813;SDS011;389;48.710;9.392;2023-07-29T00:47:03;4.93;;;3.20;;
813;SDS011;389;48.710;9.392;2023-07-29T00:49:30;5.10;;;3.13;;
813;SDS011;389;48.710;9.392;2023-07-29T00:51:57;4.37;;;3.40;;
813;SDS011;389;48.710;9.392;2023-07-29T00:54:23;4.27;;;3.63;;
813;SDS011;389;48.710;9.392;2023-07-29T00:56:48;4.73;;;3.67;;
813;SDS011;389;48.710;9.392;2023-07-29T00:59:14;5.50;;;4.23;;
813;SDS011;389;48.710;9.392;2023-07-29T01:01:40;4.10;;;3.60;;
813;SDS011;389;48.710;9.392;2023-07-29T01:04:06;5.10;;;3.80;;
813;SDS011;389;48.710;9.392;2023-07-29T01:15:01;7.97;;;3.60;;
813;SDS011;389;48.710;9.392;2023-07-29T01:17:38;3.87;;;3.33;;
813;SDS011;389;48.710;9.392;2023-07-29T01:20:08;6.10;;;4.07;;
813;SDS011;389;48.710;9.392;2023-07-29T01:22:45;4.53;;;4.10;;
813;SDS011;389;48.710;9.392;2023-07-29T01:25:12;3.67;;;3.37;;
813;SDS011;389;48.710;9.392;2023-07-29T01:27:38;8.50;;;4.50;;
813;SDS011;389;48.710;9.392;2023-07-29T01:30:05;4.70;;;3.80;;
813;SDS011;389;48.710;9.392;2023-07-29T01:32:34;4.60;;;3.90;;
813;SDS011;389;48.710;9.392;2023-07-29T01:37:53;5.50;;;3.60;;
813;SDS011;389;48.710;9.392;2023-07-29T01:40:22;4.20;;;3.67;;
813;SDS011;389;48.710;9.392;2023-07-29T01:42:51;4.40;;;3.90;;
813;SDS011;389;48.710;9.392;2023-07-29T01:45:17;4.30;;;3.50;;
813;SDS011;389;48.710;9.392;2023-07-29T01:47:42;4.53;;;3.63;;
813;SDS011;389;48.710;9.392;2023-07-29T01:50:08;4.73;;;3.83;;
813;SDS011;389;48.710;9.392;2023-07-29T01:52:34;6.23;;;3.60;;
813;SDS011;389;48.710;9.392;2023-07-29T01:55:00;5.50;;;4.00;;
813;SDS011;389;48.710;9.392;2023-07-29T01:57:26;4.50;;;3.30;;
813;SDS011;389;48.710;9.392;2023-07-29T01:59:51;4.20;;;3.80;;
813;SDS011;389;48.710;9.392;2023-07-29T02:02:17;5.43;;;3.87;;
813;SDS011;389;48.710;9.392;2023-07-29T02:04:42;5.07;;;3.97;;
813;SDS011;389;48.710;9.392;2023-07-29T02:07:08;4.90;;;4.40;;
813;SDS011;389;48.710;9.392;2023-07-29T02:09:33;3.90;;;3.60;;
813;SDS011;389;48.710;9.392;2023-07-29T02:11:59;3.97;;;3.40;;
813;SDS011;389;48.710;9.392;2023-07-29T02:14:24;4.73;;;3.73;;
813;SDS011;389;48.710;9.392;2023-07-29T02:16:50;8.30;;;4.57;;
813;SDS011;389;48.710;9.392;2023-07-29T02:19:16;5.40;;;4.90;;
813;SDS011;389;48.710;9.392;2023-07-29T02:21:41;5.37;;;4.37;;
813;SDS011;389;48.710;9.392;2023-07-29T02:24:07;5.77;;;4.80;;
813;SDS011;389;48.710;9.392;2023-07-29T02:26:32;6.00;;;4.17;;
813;SDS011;389;48.710;9.392;2023-07-29T02:28:58;4.63;;;4.10;;
813;SDS011;389;48.710;9.392;2023-07-29T02:31:24;4.53;;;3.80;;
813;SDS011;389;48.710;9.392;2023-07-29T02:33:50;5.70;;;4.20;;
813;SDS011;389;48.710;9.392;2023-07-29T02:36:16;5.17;;;3.60;;
813;SDS011;389;48.710;9.392;2023-07-29T02:38:42;4.53;;;4.13;;
813;SDS011;389;48.710;9.392;2023-07-29T02:41:08;8.07;;;3.80;;
813;SDS011;389;48.710;9.392;2023-07-29T02:43:35;4.00;;;3.17;;
813;SDS011;389;48.710;9.392;2023-07-29T02:46:01;3.60;;;3.00;;
813;SDS011;389;48.710;9.392;2023-07-29T02:48:27;5.17;;;3.33;;
813;SDS011;389;48.710;9.392;2023-07-29T02:50:53;3.90;;;2.77;;
813;SDS011;389;48.710;9.392;2023-07-29T02:53:19;3.80;;;3.03;;
813;SDS011;389;48.710;9.392;2023-07-29T02:55:45;3.03;;;2.80;;
813;SDS011;389;48.710;9.392;2023-07-29T02:58:10;6.40;;;3.10;;
813;SDS011;389;48.710;9.392;2023-07-29T03:00:36;3.30;;;2.60;;
813;SDS011;389;48.710;9.392;2023-07-29T03:03:02;4.30;;;2.50;;
813;SDS011;389;48.710;9.392;2023-07-29T03:05:28;3.43;;;3.07;;
813;SDS011;389;48.710;9.392;2023-07-29T03:07:53;3.03;;;2.73;;
813;SDS011;389;48.710;9.392;2023-07-29T03:10:19;5.77;;;3.00;;
813;SDS011;389;48.710;9.392;2023-07-29T03:12:45;3.77;;;3.20;;
813;SDS011;389;48.710;9.392;2023-07-29T03:15:11;5.53;;;3.57;;
813;SDS011;389;48.710;9.392;2023-07-29T03:17:37;4.90;;;3.50;;
813;SDS011;389;48.710;9.392;2023-07-29T03:20:03;3.33;;;2.80;;
813;SDS011;389;48.710;9.392;2023-07-29T03:22:29;4.50;;;2.70;;
813;SDS011;389;48.710;9.392;2023-07-29T03:24:54;4.90;;;2.83;;
813;SDS011;389;48.710;9.392;2023-07-29T03:27:20;3.10;;;2.80;;
813;SDS011;389;48.710;9.392;2023-07-29T03:29:45;3.30;;;3.00;;
813;SDS011;389;48.710;9.392;2023-07-29T03:32:11;2.90;;;2.70;;
813;SDS011;389;48.710;9.392;2023-07-29T03:34:36;3.40;;;3.10;;
813;SDS011;389;48.710;9.392;2023-07-29T03:37:02;3.83;;;2.70;;
813;SDS011;389;48.710;9.392;2023-07-29T03:39:28;3.30;;;3.00;;
813;SDS011;389;48.710;9.392;2023-07-29T03:41:53;3.80;;;2.80;;
813;SDS011;389;48.710;9.392;2023-07-29T03:44:19;3.80;;;2.60;;
813;SDS011;389;48.710;9.392;2023-07-29T03:46:44;12.80;;;4.40;;
813;SDS011;389;48.710;9.392;2023-07-29T03:49:10;2.87;;;2.67;;
813;SDS011;389;48.710;9.392;2023-07-29T03:51:36;2.87;;;2.67;;
813;SDS011;389;48.710;9.392;2023-07-29T03:54:01;4.73;;;2.90;;
813;SDS011;389;48.710;9.392;2023-07-29T03:56:27;3.20;;;2.90;;
813;SDS011;389;48.710;9.392;2023-07-29T03:58:53;3.37;;;3.07;;
813;SDS011;389;48.710;9.392;2023-07-29T04:01:18;2.90;;;2.70;;
813;SDS011;389;48.710;9.392;2023-07-29T04:03:45;3.00;;;2.80;;
813;SDS011;389;48.710;9.392;2023-07-29T04:06:13;4.57;;;3.07;;
813;SDS011;389;48.710;9.392;2023-07-29T04:08:39;6.10;;;5.37;;
813;SDS011;389;48.710;9.392;2023-07-29T04:11:06;3.50;;;2.93;;
813;SDS011;389;48.710;9.392;2023-07-29T04:13:31;3.60;;;3.13;;
813;SDS011;389;48.710;9.392;2023-07-29T04:15:57;3.20;;;2.90;;
813;SDS011;389;48.710;9.392;2023-07-29T04:18:22;3.30;;;3.00;;
813;SDS011;389;48.710;9.392;2023-07-29T04:20:48;3.43;;;2.80;;
813;SDS011;389;48.710;9.392;2023-07-29T04:23:13;3.50;;;3.20;;
813;SDS011;389;48.710;9.392;2023-07-29T04:25:39;3.73;;;2.50;;
813;SDS011;389;48.710;9.392;2023-07-29T04:28:04;3.10;;;2.80;;
813;SDS011;389;48.710;9.392;2023-07-29T04:30:30;5.27;;;2.40;;
813;SDS011;389;48.710;9.392;2023-07-29T04:32:56;2.57;;;2.37;;
813;SDS011;389;48.710;9.392;2023-07-29T04:35:21;3.17;;;2.93;;
813;SDS011;389;48.710;9.392;2023-07-29T04:37:48;4.13;;;2.63;;
813;SDS011;389;48.710;9.392;2023-07-29T04:40:14;2.70;;;2.50;;
813;SDS011;389;48.710;9.392;2023-07-29T04:42:39;2.83;;;2.60;;
813;SDS011;389;48.710;9.392;2023-07-29T04:45:05;3.87;;;2.60;;
813;SDS011;389;48.710;9.392;2023-07-29T04:47:31;3.20;;;2.60;;
813;SDS011;389;48.710;9.392;2023-07-29T04:49:56;3.40;;;2.50;;
813;SDS011;389;48.710;9.392;2023-07-29T04:52:22;4.23;;;2.50;;
813;SDS011;389;48.710;9.392;2023-07-29T04:54:47;8.63;;;4.60;;
813;SDS011;389;48.710;9.392;2023-07-29T04:57:13;6.63;;;4.67;;
813;SDS011;389;48.710;9.392;2023-07-29T04:59:38;8.90;;;4.70;;
813;SDS011;389;48.710;9.392;2023-07-29T05:02:04;8.13;;;4.20;;
813;SDS011;389;48.710;9.392;2023-07-29T05:04:30;5.63;;;4.57;;
813;SDS011;389;48.710;9.392;2023-07-29T05:06:55;7.13;;;4.30;;
813;SDS011;389;48.710;9.392;2023-07-29T05:09:21;5.07;;;4.27;;
813;SDS011;389;48.710;9.392;2023-07-29T05:11:47;4.70;;;4.13;;
813;SDS011;389;48.710;9.392;2023-07-29T05:14:14;7.20;;;4.07;;
813;SDS011;389;48.710;9.392;2023-07-29T05:16:40;4.87;;;4.17;;
813;SDS011;389;48.710;9.392;2023-07-29T05:19:06;6.23;;;4.57;;
813;SDS011;389;48.710;9.392;2023-07-29T05:21:32;5.77;;;4.50;;
813;SDS011;389;48.710;9.392;2023-07-29T05:23:57;8.90;;;3.90;;
813;SDS011;389;48.710;9.392;2023-07-29T05:26:23;5.57;;;4.30;;
813;SDS011;389;48.710;9.392;2023-07-29T05:28:49;7.43;;;4.90;;
813;SDS011;389;48.710;9.392;2023-07-29T05:31:14;6.40;;;3.90;;
813;SDS011;389;48.710;9.392;2023-07-29T05:33:40;3.90;;;3.50;;
813;SDS011;389;48.710;9.392;2023-07-29T05:36:05;4.83;;;3.50;;
813;SDS011;389;48.710;9.392;2023-07-29T05:38:31;3.50;;;3.20;;
813;SDS011;389;48.710;9.392;2023-07-29T05:40:56;3.67;;;3.37;;
813;SDS011;389;48.710;9.392;2023-07-29T05:43:23;5.20;;;3.40;;
813;SDS011;389;48.710;9.392;2023-07-29T05:45:49;4.63;;;3.63;;
813;SDS011;389;48.710;9.392;2023-07-29T05:48:16;3.43;;;3.10;;
813;SDS011;389;48.710;9.392;2023-07-29T05:50:41;3.47;;;3.17;;
813;SDS011;389;48.710;9.392;2023-07-29T05:53:07;4.50;;;2.53;;
813;SDS011;389;48.710;9.392;2023-07-29T05:55:33;4.17;;;3.20;;
813;SDS011;389;48.710;9.392;2023-07-29T05:57:58;4.43;;;3.20;;
813;SDS011;389;48.710;9.392;2023-07-29T06:00:24;4.10;;;3.30;;
813;SDS011;389;48.710;9.392;2023-07-29T06:02:49;4.53;;;3.23;;
813;SDS011;389;48.710;9.392;2023-07-29T06:05:15;5.17;;;3.43;;
813;SDS011;389;48.710;9.392;2023-07-29T06:07:40;3.20;;;2.80;;
813;SDS011;389;48.710;9.392;2023-07-29T06:10:10;3.60;;;3.23;;
813;SDS011;389;48.710;9.392;2023-07-29T06:12:42;3.40;;;3.10;;
813;SDS011;389;48.710;9.392;2023-07-29T06:15:08;4.73;;;3.47;;
813;SDS011;389;48.710;9.392;2023-07-29T06:17:34;3.63;;;3.07;;
813;SDS011;389;48.710;9.392;2023-07-29T06:19:59;6.77;;;2.80;;
813;SDS011;389;48.710;9.392;2023-07-29T06:22:25;4.60;;;2.80;;
813;SDS011;389;48.710;9.392;2023-07-29T06:24:51;3.17;;;2.90;;
813;SDS011;389;48.710;9.392;2023-07-29T06:27:16;2.97;;;2.67;;
813;SDS011;389;48.710;9.392;2023-07-29T06:29:42;3.63;;;3.10;;
813;SDS011;389;48.710;9.392;2023-07-29T06:32:07;3.80;;;2.80;;
813;SDS011;389;48.710;9.392;2023-07-29T06:34:33;5.00;;;2.90;;
813;SDS011;389;48.710;9.392;2023-07-29T06:36:58;6.53;;;2.93;;
813;SDS011;389;48.710;9.392;2023-07-29T06:39:24;4.53;;;2.40;;
813;SDS011;389;48.710;9.392;2023-07-29T06:41:49;3.90;;;2.20;;
813;SDS011;389;48.710;9.392;2023-07-29T06:44:15;2.53;;;2.33;;
813;SDS011;389;48.710;9.392;2023-07-29T06:46:41;2.50;;;2.27;;
813;SDS011;389;48.710;9.392;2023-07-29T06:49:06;2.10;;;2.00;;
813;SDS011;389;48.710;9.392;2023-07-29T06:51:32;4.10;;;2.30;;
813;SDS011;389;48.710;9.392;2023-07-29T06:54:00;5.07;;;2.17;;
813;SDS011;389;48.710;9.392;2023-07-29T06:56:26;3.07;;;1.97;;
813;SDS011;389;48.710;9.392;2023-07-29T06:58:52;1.97;;;1.80;;
813;SDS011;389;48.710;9.392;2023-07-29T07:01:17;3.80;;;2.27;;
813;SDS011;389;48.710;9.392;2023-07-29T07:03:43;2.40;;;2.20;;
813;SDS011;389;48.710;9.392;2023-07-29T07:06:08;2.63;;;1.90;;
813;SDS011;389;48.710;9.392;2023-07-29T07:08:34;3.67;;;2.30;;
813;SDS011;389;48.710;9.392;2023-07-29T07:11:00;2.67;;;2.20;;
813;SDS011;389;48.710;9.392;2023-07-29T07:13:25;4.20;;;2.03;;
813;SDS011;389;48.710;9.392;2023-07-29T07:15:53;3.07;;;2.00;;
813;SDS011;389;48.710;9.392;2023-07-29T07:18:20;6.30;;;2.57;;
813;SDS011;389;48.710;9.392;2023-07-29T07:20:48;6.37;;;2.47;;
813;SDS011;389;48.710;9.392;2023-07-29T07:23:16;7.00;;;2.00;;
813;SDS011;389;48.710;9.392;2023-07-29T07:25:42;4.03;;;1.80;;
813;SDS011;389;48.710;9.392;2023-07-29T07:28:08;2.23;;;1.80;;
813;SDS011;389;48.710;9.392;2023-07-29T07:30:34;2.47;;;1.50;;
813;SDS011;389;48.710;9.392;2023-07-29T07:33:00;2.43;;;1.43;;
813;SDS011;389;48.710;9.392;2023-07-29T07:35:28;2.10;;;1.30;;
813;SDS011;389;48.710;9.392;2023-07-29T07:37:53;2.10;;;1.40;;
813;SDS011;389;48.710;9.392;2023-07-29T07:40:19;2.10;;;1.13;;
813;SDS011;389;48.710;9.392;2023-07-29T07:42:44;1.77;;;0.93;;
813;SDS011;389;48.710;9.392;2023-07-29T07:45:10;4.37;;;0.90;;
813;SDS011;389;48.710;9.392;2023-07-29T07:47:35;1.07;;;0.90;;
813;SDS011;389;48.710;9.392;2023-07-29T07:50:01;1.73;;;1.00;;
813;SDS011;389;48.710;9.392;2023-07-29T07:52:27;2.57;;;1.00;;
813;SDS011;389;48.710;9.392;2023-07-29T07:54:53;1.13;;;0.90;;
813;SDS011;389;48.710;9.392;2023-07-29T07:57:22;2.03;;;1.00;;
813;SDS011;389;48.710;9.392;2023-07-29T07:59:48;1.57;;;0.70;;
813;SDS011;389;48.710;9.392;2023-07-29T08:02:14;1.80;;;0.80;;
813;SDS011;389;48.710;9.392;2023-07-29T08:04:39;0.83;;;0.80;;
813;SDS011;389;48.710;9.392;2023-07-29T08:07:05;1.43;;;0.80;;
813;SDS011;389;48.710;9.392;2023-07-29T08:09:30;1.53;;;0.87;;
813;SDS011;389;48.710;9.392;2023-07-29T08:11:56;3.57;;;1.60;;
813;SDS011;389;48.710;9.392;2023-07-29T08:14:22;2.07;;;1.20;;
813;SDS011;389;48.710;9.392;2023-07-29T08:16:47;1.27;;;1.10;;
813;SDS011;389;48.710;9.392;2023-07-29T08:19:13;2.60;;;1.40;;
813;SDS011;389;48.710;9.392;2023-07-29T08:21:38;1.63;;;1.10;;
813;SDS011;389;48.710;9.392;2023-07-29T08:24:04;1.30;;;1.20;;
813;SDS011;389;48.710;9.392;2023-07-29T08:26:31;1.30;;;1.20;;
813;SDS011;389;48.710;9.392;2023-07-29T08:28:57;1.80;;;1.10;;
813;SDS011;389;48.710;9.392;2023-07-29T08:31:22;2.50;;;1.60;;
813;SDS011;389;48.710;9.392;2023-07-29T08:33:48;2.80;;;1.60;;
813;SDS011;389;48.710;9.392;2023-07-29T08:36:13;3.07;;;1.97;;
813;SDS011;389;48.710;9.392;2023-07-29T08:38:39;5.10;;;1.80;;
813;SDS011;389;48.710;9.392;2023-07-29T08:43:44;3.10;;;2.47;;
813;SDS011;389;48.710;9.392;2023-07-29T08:46:17;1.93;;;1.73;;
813;SDS011;389;48.710;9.392;2023-07-29T08:48:44;1.67;;;1.53;;
813;SDS011;389;48.710;9.392;2023-07-29T08:51:11;2.10;;;1.90;;
813;SDS011;389;48.710;9.392;2023-07-29T08:53:38;2.13;;;1.90;;
813;SDS011;389;48.710;9.392;2023-07-29T08:56:04;2.43;;;1.90;;
813;SDS011;389;48.710;9.392;2023-07-29T08:58:32;3.37;;;2.00;;
813;SDS011;389;48.710;9.392;2023-07-29T09:00:58;2.57;;;2.37;;
813;SDS011;389;48.710;9.392;2023-07-29T09:03:23;2.23;;;2.10;;
813;SDS011;389;48.710;9.392;2023-07-29T09:05:49;2.10;;;2.00;;
813;SDS011;389;48.710;9.392;2023-07-29T09:08:15;2.43;;;1.90;;
813;SDS011;389;48.710;9.392;2023-07-29T09:10:41;1.80;;;1.70;;
813;SDS011;389;48.710;9.392;2023-07-29T09:13:07;2.70;;;1.70;;
813;SDS011;389;48.710;9.392;2023-07-29T09:15:34;2.07;;;1.97;;
813;SDS011;389;48.710;9.392;2023-07-29T09:18:16;2.17;;;2.00;;
813;SDS011;389;48.710;9.392;2023-07-29T09:20:45;2.07;;;1.97;;
813;SDS011;389;48.710;9.392;2023-07-29T09:23:12;2.20;;;2.00;;
813;SDS011;389;48.710;9.392;2023-07-29T09:25:38;2.13;;;1.90;;
813;SDS011;389;48.710;9.392;2023-07-29T09:28:09;1.60;;;1.50;;
813;SDS011;389;48.710;9.392;2023-07-29T09:30:42;2.00;;;1.80;;
813;SDS011;389;48.710;9.392;2023-07-29T09:33:11;2.97;;;1.87;;
813;SDS011;389;48.710;9.392;2023-07-29T09:35:37;2.10;;;1.87;;
813;SDS011;389;48.710;9.392;2023-07-29T09:38:06;1.73;;;1.63;;
813;SDS011;389;48.710;9.392;2023-07-29T09:40:36;2.17;;;1.97;;
813;SDS011;389;48.710;9.392;2023-07-29T09:43:03;1.80;;;1.67;;
813;SDS011;389;48.710;9.392;2023-07-29T09:45:29;2.30;;;1.90;;
813;SDS011;389;48.710;9.392;2023-07-29T09:47:57;2.30;;;1.60;;
813;SDS011;389;48.710;9.392;2023-07-29T09:50:26;2.13;;;1.77;;
813;SDS011;389;48.710;9.392;2023-07-29T09:52:53;1.90;;;1.80;;
813;SDS011;389;48.710;9.392;2023-07-29T09:55:21;1.87;;;1.77;;
813;SDS011;389;48.710;9.392;2023-07-29T09:57:57;2.20;;;2.00;;
813;SDS011;389;48.710;9.392;2023-07-29T10:00:26;1.93;;;1.67;;
813;SDS011;389;48.710;9.392;2023-07-29T10:02:56;2.10;;;1.80;;
813;SDS011;389;48.710;9.392;2023-07-29T10:05:25;1.80;;;1.70;;
813;SDS011;389;48.710;9.392;2023-07-29T10:07:51;1.83;;;1.73;;
813;SDS011;389;48.710;9.392;2023-07-29T10:10:18;1.93;;;1.83;;
813;SDS011;389;48.710;9.392;2023-07-29T10:12:45;1.60;;;1.50;;
813;SDS011;389;48.710;9.392;2023-07-29T10:15:11;3.53;;;2.10;;
813;SDS011;389;48.710;9.392;2023-07-29T10:17:37;2.07;;;1.97;;
813;SDS011;389;48.710;9.392;2023-07-29T10:20:04;2.67;;;2.20;;
813;SDS011;389;48.710;9.392;2023-07-29T10:22:39;2.57;;;2.37;;
813;SDS011;389;48.710;9.392;2023-07-29T10:25:16;2.00;;;1.90;;
813;SDS011;389;48.710;9.392;2023-07-29T10:27:43;2.30;;;2.10;;
813;SDS011;389;48.710;9.392;2023-07-29T10:30:26;2.27;;;2.03;;
813;SDS011;389;48.710;9.392;2023-07-29T10:32:53;2.57;;;2.30;;
813;SDS011;389;48.710;9.392;2023-07-29T10:35:23;2.30;;;2.10;;
813;SDS011;389;48.710;9.392;2023-07-29T10:37:50;3.17;;;2.30;;
813;SDS011;389;48.710;9.392;2023-07-29T10:40:18;2.83;;;2.33;;
813;SDS011;389;48.710;9.392;2023-07-29T10:43:08;2.23;;;2.13;;
813;SDS011;389;48.710;9.392;2023-07-29T10:45:39;2.30;;;2.10;;
813;SDS011;389;48.710;9.392;2023-07-29T10:48:12;2.73;;;2.00;;
813;SDS011;389;48.710;9.392;2023-07-29T10:54:09;3.10;;;2.60;;
813;SDS011;389;48.710;9.392;2023-07-29T10:56:49;2.67;;;2.17;;
813;SDS011;389;48.710;9.392;2023-07-29T11:01:59;2.20;;;2.10;;
813;SDS011;389;48.710;9.392;2023-07-29T11:04:29;2.87;;;2.10;;
813;SDS011;389;48.710;9.392;2023-07-29T11:09:43;2.17;;;2.07;;
813;SDS011;389;48.710;9.392;2023-07-29T11:12:37;2.17;;;1.97;;
813;SDS011;389;48.710;9.392;2023-07-29T11:17:39;2.07;;;1.97;;
813;SDS011;389;48.710;9.392;2023-07-29T11:20:15;2.60;;;1.97;;
813;SDS011;389;48.710;9.392;2023-07-29T11:22:41;2.13;;;1.97;;
813;SDS011;389;48.710;9.392;2023-07-29T11:25:08;2.60;;;2.40;;
813;SDS011;389;48.710;9.392;2023-07-29T11:27:35;2.00;;;1.80;;
813;SDS011;389;48.710;9.392;2023-07-29T11:30:02;3.13;;;2.00;;
813;SDS011;389;48.710;9.392;2023-07-29T11:32:33;1.43;;;1.33;;
813;SDS011;389;48.710;9.392;2023-07-29T11:35:16;2.23;;;2.10;;
813;SDS011;389;48.710;9.392;2023-07-29T11:37:44;1.87;;;1.77;;
813;SDS011;389;48.710;9.392;2023-07-29T11:40:13;1.93;;;1.83;;
813;SDS011;389;48.710;9.392;2023-07-29T11:42:40;2.07;;;1.90;;
813;SDS011;389;48.710;9.392;2023-07-29T11:45:06;1.60;;;1.50;;
813;SDS011;389;48.710;9.392;2023-07-29T11:47:33;2.37;;;1.70;;
813;SDS011;389;48.710;9.392;2023-07-29T11:50:01;1.90;;;1.80;;
813;SDS011;389;48.710;9.392;2023-07-29T11:52:31;2.03;;;1.67;;
813;SDS011;389;48.710;9.392;2023-07-29T11:54:58;1.90;;;1.80;;
813;SDS011;389;48.710;9.392;2023-07-29T11:57:24;2.37;;;2.17;;
813;SDS011;389;48.710;9.392;2023-07-29T11:59:50;1.60;;;1.50;;
813;SDS011;389;48.710;9.392;2023-07-29T12:02:16;1.70;;;1.60;;
813;SDS011;389;48.710;9.392;2023-07-29T12:04:44;2.10;;;1.90;;
813;SDS011;389;48.710;9.392;2023-07-29T12:07:12;1.67;;;1.57;;
813;SDS011;389;48.710;9.392;2023-07-29T12:09:39;2.37;;;1.60;;
813;SDS011;389;48.710;9.392;2023-07-29T12:12:05;2.17;;;2.07;;
813;SDS011;389;48.710;9.392;2023-07-29T12:14:31;2.03;;;1.80;;
813;SDS011;389;48.710;9.392;2023-07-29T12:17:01;1.90;;;1.80;;
813;SDS011;389;48.710;9.392;2023-07-29T12:19:32;2.20;;;2.10;;
813;SDS011;389;48.710;9.392;2023-07-29T12:22:03;2.17;;;1.80;;
813;SDS011;389;48.710;9.392;2023-07-29T12:24:34;2.20;;;2.00;;
813;SDS011;389;48.710;9.392;2023-07-29T12:27:04;2.13;;;2.03;;
813;SDS011;389;48.710;9.392;2023-07-29T12:29:30;2.30;;;2.00;;
813;SDS011;389;48.710;9.392;2023-07-29T12:31:57;2.03;;;1.93;;
813;SDS011;389;48.710;9.392;2023-07-29T12:34:26;2.57;;;2.37;;
813;SDS011;389;48.710;9.392;2023-07-29T12:36:53;1.90;;;1.80;;
813;SDS011;389;48.710;9.392;2023-07-29T12:41:49;1.90;;;1.80;;
813;SDS011;389;48.710;9.392;2023-07-29T12:44:16;2.10;;;2.00;;
813;SDS011;389;48.710;9.392;2023-07-29T12:46:42;1.73;;;1.63;;
813;SDS011;389;48.710;9.392;2023-07-29T12:49:08;2.50;;;2.30;;
813;SDS011;389;48.710;9.392;2023-07-29T12:51:34;1.70;;;1.60;;
813;SDS011;389;48.710;9.392;2023-07-29T12:54:00;2.00;;;1.90;;
813;SDS011;389;48.710;9.392;2023-07-29T12:56:26;2.07;;;1.87;;
813;SDS011;389;48.710;9.392;2023-07-29T12:58:52;2.30;;;2.20;;
813;SDS011;389;48.710;9.392;2023-07-29T13:01:17;2.20;;;2.00;;
813;SDS011;389;48.710;9.392;2023-07-29T13:03:43;2.63;;;1.90;;
813;SDS011;389;48.710;9.392;2023-07-29T13:06:09;2.07;;;1.90;;
813;SDS011;389;48.710;9.392;2023-07-29T13:08:35;2.13;;;1.93;;
813;SDS011;389;48.710;9.392;2023-07-29T13:11:00;2.70;;;2.10;;
813;SDS011;389;48.710;9.392;2023-07-29T13:13:26;1.90;;;1.80;;
813;SDS011;389;48.710;9.392;2023-07-29T13:15:52;2.10;;;1.97;;
813;SDS011;389;48.710;9.392;2023-07-29T13:18:17;2.30;;;2.10;;
813;SDS011;389;48.710;9.392;2023-07-29T13:20:43;3.63;;;1.90;;
813;SDS011;389;48.710;9.392;2023-07-29T13:23:09;2.00;;;1.90;;
813;SDS011;389;48.710;9.392;2023-07-29T13:25:34;2.03;;;1.90;;
813;SDS011;389;48.710;9.392;2023-07-29T13:28:00;2.20;;;2.00;;
813;SDS011;389;48.710;9.392;2023-07-29T13:30:25;2.33;;;2.20;;
813;SDS011;389;48.710;9.392;2023-07-29T13:32:51;2.00;;;1.90;;
813;SDS011;389;48.710;9.392;2023-07-29T13:35:16;2.00;;;1.90;;
813;SDS011;389;48.710;9.392;2023-07-29T13:37:42;2.07;;;1.87;;
813;SDS011;389;48.710;9.392;2023-07-29T13:40:07;1.97;;;1.87;;
813;SDS011;389;48.710;9.392;2023-07-29T13:42:33;2.20;;;1.67;;
813;SDS011;389;48.710;9.392;2023-07-29T13:44:59;2.07;;;1.97;;
813;SDS011;389;48.710;9.392;2023-07-29T13:47:24;1.70;;;1.60;;
813;SDS011;389;48.710;9.392;2023-07-29T13:49:50;1.70;;;1.60;;
813;SDS011;389;48.710;9.392;2023-07-29T13:52:15;1.63;;;1.53;;
813;SDS011;389;48.710;9.392;2023-07-29T13:54:41;2.30;;;1.80;;
813;SDS011;389;48.710;9.392;2023-07-29T13:57:06;2.10;;;2.00;;
813;SDS011;389;48.710;9.392;2023-07-29T13:59:32;2.00;;;1.90;;
813;SDS011;389;48.710;9.392;2023-07-29T14:01:59;2.03;;;1.93;;
813;SDS011;389;48.710;9.392;2023-07-29T14:04:24;1.60;;;1.50;;
813;SDS011;389;48.710;9.392;2023-07-29T14:06:50;1.93;;;1.83;;
813;SDS011;389;48.710;9.392;2023-07-29T14:09:15;2.30;;;2.00;;
813;SDS011;389;48.710;9.392;2023-07-29T14:11:41;1.87;;;1.77;;
813;SDS011;389;48.710;9.392;2023-07-29T14:14:07;2.10;;;1.83;;
813;SDS011;389;48.710;9.392;2023-07-29T14:16:32;1.77;;;1.63;;
813;SDS011;389;48.710;9.392;2023-07-29T14:18:58;2.10;;;1.97;;
813;SDS011;389;48.710;9.392;2023-07-29T14:21:24;2.13;;;1.93;;
813;SDS011;389;48.710;9.392;2023-07-29T14:23:49;2.17;;;1.97;;
813;SDS011;389;48.710;9.392;2023-07-29T14:26:15;1.90;;;1.80;;
813;SDS011;389;48.710;9.392;2023-07-29T14:28:40;2.50;;;2.10;;
813;SDS011;389;48.710;9.392;2023-07-29T14:31:06;2.30;;;2.03;;
813;SDS011;389;48.710;9.392;2023-07-29T14:33:32;1.80;;;1.70;;
813;SDS011;389;48.710;9.392;2023-07-29T14:35:57;2.20;;;2.00;;
813;SDS011;389;48.710;9.392;2023-07-29T14:38:23;2.27;;;2.07;;
813;SDS011;389;48.710;9.392;2023-07-29T14:40:48;2.07;;;1.90;;
813;SDS011;389;48.710;9.392;2023-07-29T14:43:16;2.33;;;1.93;;
813;SDS011;389;48.710;9.392;2023-07-29T14:45:42;2.03;;;1.93;;
813;SDS011;389;48.710;9.392;2023-07-29T14:48:07;2.00;;;1.80;;
813;SDS011;389;48.710;9.392;2023-07-29T14:50:33;2.33;;;2.20;;
813;SDS011;389;48.710;9.392;2023-07-29T14:52:58;1.93;;;1.83;;
813;SDS011;389;48.710;9.392;2023-07-29T14:55:24;2.03;;;1.93;;
813;SDS011;389;48.710;9.392;2023-07-29T14:57:49;2.13;;;2.00;;
813;SDS011;389;48.710;9.392;2023-07-29T15:00:15;2.03;;;1.93;;
813;SDS011;389;48.710;9.392;2023-07-29T15:02:40;2.07;;;1.97;;
813;SDS011;389;48.710;9.392;2023-07-29T15:05:06;2.10;;;2.00;;
813;SDS011;389;48.710;9.392;2023-07-29T15:07:32;2.07;;;1.97;;
813;SDS011;389;48.710;9.392;2023-07-29T15:09:58;2.10;;;2.00;;
813;SDS011;389;48.710;9.392;2023-07-29T15:12:23;2.40;;;2.20;;
813;SDS011;389;48.710;9.392;2023-07-29T15:14:49;2.27;;;2.07;;
813;SDS011;389;48.710;9.392;2023-07-29T15:17:15;2.33;;;2.13;;
813;SDS011;389;48.710;9.392;2023-07-29T15:19:40;2.03;;;1.83;;
813;SDS011;389;48.710;9.392;2023-07-29T15:22:06;3.07;;;2.00;;
813;SDS011;389;48.710;9.392;2023-07-29T15:24:31;2.70;;;1.80;;
813;SDS011;389;48.710;9.392;2023-07-29T15:26:58;2.17;;;2.03;;
813;SDS011;389;48.710;9.392;2023-07-29T15:29:23;1.90;;;1.80;;
813;SDS011;389;48.710;9.392;2023-07-29T15:31:49;2.80;;;1.90;;
813;SDS011;389;48.710;9.392;2023-07-29T15:34:14;2.70;;;2.50;;
813;SDS011;389;48.710;9.392;2023-07-29T15:36:40;2.63;;;2.43;;
813;SDS011;389;48.710;9.392;2023-07-29T15:39:06;2.13;;;1.63;;
813;SDS011;389;48.710;9.392;2023-07-29T15:41:32;2.00;;;1.90;;
813;SDS011;389;48.710;9.392;2023-07-29T15:44:01;2.17;;;1.70;;
813;SDS011;389;48.710;9.392;2023-07-29T15:46:26;2.17;;;1.97;;
813;SDS011;389;48.710;9.392;2023-07-29T15:48:52;2.20;;;2.00;;
813;SDS011;389;48.710;9.392;2023-07-29T15:51:18;2.30;;;2.20;;
813;SDS011;389;48.710;9.392;2023-07-29T15:53:43;2.10;;;2.00;;
813;SDS011;389;48.710;9.392;2023-07-29T15:56:09;2.60;;;1.97;;
813;SDS011;389;48.710;9.392;2023-07-29T15:58:35;2.00;;;1.90;;
813;SDS011;389;48.710;9.392;2023-07-29T16:01:03;2.70;;;2.07;;
813;SDS011;389;48.710;9.392;2023-07-29T16:03:28;2.57;;;2.17;;
813;SDS011;389;48.710;9.392;2023-07-29T16:05:54;2.33;;;2.10;;
813;SDS011;389;48.710;9.392;2023-07-29T16:08:19;1.73;;;1.63;;